Time;durP1;ratioP1;P1;durP2;ratioP2;P2;SDS_P1;SDS_P2;PMS_P1;PMS_P2;Temp;Humidity;BMP_temperature;BMP_pressure;BME280_temperature;BME280_humidity;BME280_pressure;Samples;Min_cycle;Max_cycle;Signal;HPM_P1;HPM_P2
2022/02/08 00:02:17;;;;;;;3.35;2.03;;;;;;;7.57;31.50;102308.66;5009613;28;20046;-61
2022/02/08 00:04:44;;;;;;;4.47;2.40;;;;;;;7.58;31.37;102313.88;5010665;28;20050;-60
2022/02/08 00:07:11;;;;;;;6.10;3.33;;;;;;;7.60;31.05;102313.81;5010823;28;20081;-63
2022/02/08 00:09:38;;;;;;;5.35;2.30;;;;;;;7.60;31.12;102314.69;5010331;28;20046;-61
2022/02/08 00:12:12;;;;;;;3.75;2.03;;;;;;;7.62;30.99;102312.91;5010793;28;20042;-61
2022/02/08 00:14:39;;;;;;;6.32;3.05;;;;;;;7.62;30.87;102320.75;5010469;28;20046;-61
2022/02/08 00:17:05;;;;;;;4.30;2.80;;;;;;;7.62;30.85;102309.44;5010769;28;20046;-61
2022/02/08 00:19:32;;;;;;;3.40;2.10;;;;;;;7.59;30.84;102315.59;5009545;28;20050;-62
2022/02/08 00:21:59;;;;;;;3.83;1.70;;;;;;;7.53;31.31;102320.94;5010330;28;20045;-61
2022/02/08 00:24:25;;;;;;;3.58;1.85;;;;;;;7.32;31.61;102315.19;5010017;28;20084;-61
2022/02/08 00:26:53;;;;;;;4.20;2.17;;;;;;;7.25;31.77;102315.31;5009309;28;20129;-61
2022/02/08 00:29:21;;;;;;;6.78;2.33;;;;;;;7.21;31.96;102324.09;5010458;28;20112;-61
2022/02/08 00:31:48;;;;;;;6.70;2.25;;;;;;;7.15;32.13;102325.06;5010084;28;20046;-61
2022/02/08 00:34:14;;;;;;;5.43;1.92;;;;;;;7.12;32.28;102323.38;5010097;28;20512;-61
2022/02/08 00:36:41;;;;;;;5.63;2.60;;;;;;;7.10;32.55;102324.28;5009101;28;20556;-61
2022/02/08 00:39:08;;;;;;;3.60;2.28;;;;;;;7.08;32.79;102320.84;5009704;28;20107;-61
2022/02/08 00:41:37;;;;;;;4.45;2.38;;;;;;;6.92;33.21;102315.88;5010113;28;20056;-61
2022/02/08 00:44:33;;;;;;;4.65;2.55;;;;;;;6.80;33.31;102322.13;5009357;28;20042;-61
2022/02/08 00:47:17;;;;;;;4.30;2.30;;;;;;;6.80;33.28;102324.72;5009807;28;20096;-61
2022/02/08 00:49:42;;;;;;;5.20;2.17;;;;;;;6.81;33.45;102317.78;5009953;28;20053;-61
2022/02/08 00:52:18;;;;;;;4.80;2.58;;;;;;;6.79;33.62;102317.81;5009495;28;20045;-61
2022/02/08 00:54:46;;;;;;;;;;;;;;;6.70;33.96;102331.84;5008241;28;20104;-61
2022/02/08 00:57:14;;;;;;;4.15;2.35;;;;;;;6.78;33.77;102325.63;5009683;28;20337;-61
2022/02/08 00:59:41;;;;;;;6.47;2.72;;;;;;;6.75;34.02;102323.94;5009521;28;20053;-61
2022/02/08 01:02:08;;;;;;;5.25;2.88;;;;;;;6.70;33.97;102333.56;5009125;28;20115;-61
2022/02/08 01:04:35;;;;;;;7.32;2.78;;;;;;;6.61;34.12;102324.13;5009097;28;20453;-61
2022/02/08 01:07:04;;;;;;;6.22;2.60;;;;;;;6.64;33.97;102333.66;5009271;28;20046;-61
2022/02/08 01:09:47;;;;;;;7.72;2.60;;;;;;;6.60;33.84;102329.38;5007832;28;20498;-61
2022/02/08 01:12:15;;;;;;;5.53;2.50;;;;;;;6.54;34.21;102332.97;5009617;28;20411;-61
2022/02/08 01:14:43;;;;;;;4.72;2.47;;;;;;;6.38;34.51;102324.47;5009659;28;20437;-61
2022/02/08 01:17:11;;;;;;;5.55;2.63;;;;;;;6.37;34.62;102325.34;5009464;28;20046;-61
2022/02/08 01:19:45;;;;;;;3.13;2.10;;;;;;;6.30;34.76;102332.41;5009414;28;20050;-61
2022/02/08 01:22:11;;;;;;;5.35;2.70;;;;;;;6.26;35.02;102325.50;5008903;28;20486;-61
2022/02/08 01:24:38;;;;;;;4.70;2.30;;;;;;;6.22;34.93;102318.59;5009237;28;20046;-61
2022/02/08 01:27:09;;;;;;;4.55;2.50;;;;;;;6.24;34.89;102329.88;5007972;28;20499;-62
2022/02/08 01:29:55;;;;;;;5.22;2.58;;;;;;;6.24;35.21;102324.66;5009307;28;20581;-61
2022/02/08 01:48:12;;;;;;;5.13;2.42;;;;;;;5.99;36.40;102339.72;4992808;28;20054;-61
2022/02/08 01:50:39;;;;;;;4.50;2.88;;;;;;;5.88;36.64;102342.44;4992686;28;20069;-61
2022/02/08 01:53:07;;;;;;;6.40;3.30;;;;;;;5.81;36.88;102346.81;4992362;28;20105;-61
2022/02/08 01:55:34;;;;;;;5.88;3.22;;;;;;;5.66;37.04;102347.88;4993828;28;20047;-61
2022/02/08 01:58:17;;;;;;;5.15;2.95;;;;;;;5.65;37.26;102350.47;4996749;28;20519;-61
2022/02/08 02:00:44;;;;;;;7.65;3.92;;;;;;;5.68;37.11;102356.50;5002797;28;20084;-61
2022/02/08 02:03:11;;;;;;;7.28;4.10;;;;;;;5.68;37.07;102353.91;5016189;28;20052;-61
2022/02/08 02:05:37;;;;;;;6.90;3.90;;;;;;;5.72;36.71;102353.00;5015985;28;20050;-60
2022/02/08 02:08:04;;;;;;;7.10;3.85;;;;;;;5.71;36.97;102351.28;5015765;28;20046;-61
2022/02/08 02:10:32;;;;;;;8.45;3.70;;;;;;;5.71;36.96;102347.81;5015872;28;20054;-61
2022/02/08 02:13:02;;;;;;;8.65;4.20;;;;;;;5.75;37.02;102352.09;5015984;28;20069;-61
2022/02/08 02:15:29;;;;;;;8.32;3.92;;;;;;;5.70;37.08;102352.16;5015849;28;20054;-61
2022/02/08 02:17:56;;;;;;;9.48;5.13;;;;;;;5.74;37.15;102350.41;5015217;28;20046;-61
2022/02/08 02:20:23;;;;;;;10.88;5.55;;;;;;;5.73;37.01;102354.72;5015733;28;20057;-61
2022/02/08 02:22:50;;;;;;;8.18;4.47;;;;;;;5.77;36.93;102346.91;5015467;28;20050;-61
2022/02/08 02:25:22;;;;;;;9.23;4.68;;;;;;;5.70;36.87;102346.06;5015862;28;20495;-61
2022/02/08 02:27:54;;;;;;;9.43;5.60;;;;;;;5.66;37.12;102350.47;5012587;28;20474;-61
2022/02/08 02:30:23;;;;;;;10.90;4.43;;;;;;;5.63;37.31;102355.69;5012167;28;20141;-61
2022/02/08 02:32:50;;;;;;;6.65;4.43;;;;;;;5.44;37.95;102361.97;5011658;28;20050;-61
2022/02/08 02:35:17;;;;;;;6.85;4.47;;;;;;;5.43;37.79;102361.09;5012399;28;20061;-61
2022/02/08 02:37:57;;;;;;;10.27;5.03;;;;;;;5.36;38.50;102349.88;5011748;28;20050;-61
2022/02/08 02:40:25;;;;;;;6.75;4.55;;;;;;;5.40;38.14;102361.13;5012008;28;20097;-61
2022/02/08 02:42:53;;;;;;;6.15;4.60;;;;;;;5.39;38.18;102362.84;5012245;28;20129;-61
2022/02/08 02:45:21;;;;;;;8.00;4.53;;;;;;;5.38;38.23;102363.75;5012023;28;20045;-64
2022/02/08 02:47:51;;;;;;;9.75;5.10;;;;;;;5.39;38.12;102369.81;5012288;28;20050;-62
2022/02/08 02:50:22;;;;;;;10.02;5.90;;;;;;;5.40;38.44;102371.53;5010906;28;20054;-62
2022/02/08 02:52:49;;;;;;;8.75;5.38;;;;;;;5.36;38.58;102370.69;5011693;28;20060;-61
2022/02/08 02:55:16;;;;;;;10.70;5.30;;;;;;;5.35;38.68;102365.50;5012080;28;20100;-61
2022/02/08 02:57:46;;;;;;;9.50;5.43;;;;;;;5.32;38.74;102369.00;5011890;28;20406;-61
2022/02/08 03:00:26;;;;;;;8.65;5.68;;;;;;;5.35;38.48;102365.50;5011731;28;20050;-61
2022/02/08 03:03:01;;;;;;;9.27;5.32;;;;;;;5.33;38.71;102364.66;5011997;28;20446;-61
2022/02/08 03:19:02;;;;;;;11.52;5.25;;;;;;;5.06;39.78;102369.19;5011457;28;20054;-61
2022/02/08 03:21:29;;;;;;;9.82;5.00;;;;;;;4.98;39.85;102374.47;5011488;28;20205;-61
2022/02/08 03:23:55;;;;;;;9.07;5.55;;;;;;;4.98;39.90;102384.03;5010302;28;20391;-61
2022/02/08 03:26:22;;;;;;;10.07;5.10;;;;;;;4.99;40.29;102390.94;5010584;28;20144;-61
2022/02/08 03:28:49;;;;;;;9.43;5.45;;;;;;;5.03;39.86;102390.91;5011112;28;20058;-61
2022/02/08 03:31:15;;;;;;;10.07;5.50;;;;;;;5.02;39.92;102403.94;5011609;28;20108;-61
2022/02/08 03:33:45;;;;;;;11.32;5.60;;;;;;;5.03;40.19;102398.72;5011597;28;20050;-61
2022/02/08 03:36:12;;;;;;;7.72;5.50;;;;;;;5.02;39.94;102401.31;5011073;28;20052;-61
2022/02/08 03:38:43;;;;;;;11.75;6.80;;;;;;;4.98;40.05;102400.47;5010212;28;20057;-61
2022/02/08 03:41:11;;;;;;;13.90;6.45;;;;;;;4.98;39.85;102402.22;5011235;28;20050;-61
2022/02/08 03:43:41;;;;;;;9.63;6.00;;;;;;;4.90;40.32;102405.72;5011250;28;20050;-61
2022/02/08 03:46:16;;;;;;;11.07;5.90;;;;;;;4.87;40.33;102412.69;5011041;28;20538;-61
2022/02/08 03:48:44;;;;;;;12.93;6.70;;;;;;;4.82;40.23;102417.06;5010725;28;20045;-62
2022/02/08 03:51:13;;;;;;;11.48;5.95;;;;;;;4.76;40.44;102414.47;5010921;28;20054;-64
2022/02/08 03:53:48;;;;;;;13.63;6.32;;;;;;;4.78;40.63;102428.34;5009907;28;20061;-64
2022/02/08 03:56:23;;;;;;;15.10;6.78;;;;;;;4.71;40.77;102427.50;5010234;28;20582;-61
2022/02/08 03:58:55;;;;;;;12.82;6.57;;;;;;;4.66;40.80;102429.25;5010764;28;20046;-61
2022/02/08 04:04:10;;;;;;;10.18;5.72;;;;;;;4.58;41.25;102421.50;5010720;28;20046;-61
2022/02/08 04:06:35;;;;;;;10.60;6.55;;;;;;;4.61;41.29;102420.63;5010622;28;20060;-61
2022/02/08 04:09:04;;;;;;;8.75;5.80;;;;;;;4.59;41.31;102428.44;5009587;28;20069;-61
2022/02/08 04:11:36;;;;;;;11.80;6.10;;;;;;;4.49;41.44;102426.75;5010470;28;20046;-62
2022/02/08 04:14:22;;;;;;;12.05;6.60;;;;;;;4.51;41.49;102427.59;5010575;28;20462;-61
2022/02/08 04:16:49;;;;;;;11.27;5.93;;;;;;;4.53;41.43;102433.66;5010420;28;20486;-61
2022/02/08 04:19:22;;;;;;;10.25;6.38;;;;;;;4.38;41.73;102430.25;5010462;28;20054;-61
2022/02/08 04:33:07;;;;;;;23.42;6.80;;;;;;;4.41;41.95;102443.22;5010321;28;20120;-61
2022/02/08 04:43:28;;;;;;;13.32;7.00;;;;;;;4.40;41.88;102440.63;5010191;28;20406;-61
2022/02/08 04:46:01;;;;;;;10.30;5.75;;;;;;;4.33;42.00;102450.19;5009016;28;20054;-61
2022/02/08 04:48:52;;;;;;;11.27;6.00;;;;;;;4.35;42.24;102452.78;5010047;28;20045;-61
2022/02/08 04:54:13;;;;;;;11.27;5.88;;;;;;;4.41;41.95;102465.75;5010214;28;20050;-61
2022/02/08 05:02:15;;;;;;;10.10;5.90;;;;;;;4.39;41.97;102459.69;5009584;28;20086;-63
2022/02/08 05:27:08;;;;;;;11.10;6.20;;;;;;;4.20;42.94;102522.13;5009453;28;20054;-61
2022/02/08 05:45:27;;;;;;;11.63;6.82;;;;;;;4.07;43.58;102535.97;5009285;28;20048;-62
2022/02/08 05:47:57;;;;;;;13.70;7.22;;;;;;;4.03;43.67;102537.69;5009261;28;20117;-61
2022/02/08 05:53:05;;;;;;;13.55;7.57;;;;;;;4.08;43.65;102550.69;5008052;28;20046;-65
2022/02/08 05:55:35;;;;;;;12.20;7.05;;;;;;;4.04;43.75;102557.63;5009193;28;20601;-61
2022/02/08 05:58:03;;;;;;;11.20;7.70;;;;;;;4.06;44.01;102563.69;5009437;28;20096;-60
2022/02/08 06:00:30;;;;;;;11.88;7.20;;;;;;;4.03;43.94;102555.03;5009182;28;20503;-62
2022/02/08 06:03:04;;;;;;;15.52;7.50;;;;;;;4.04;43.96;102559.38;5009287;28;20050;-61
2022/02/08 06:05:30;;;;;;;15.60;6.88;;;;;;;3.99;44.01;102561.09;5009087;28;20104;-61
2022/02/08 06:07:57;;;;;;;16.58;7.32;;;;;;;3.87;44.22;102562.81;5009496;28;20388;-62
2022/02/08 06:10:24;;;;;;;11.93;6.78;;;;;;;3.91;44.17;102567.16;5008219;28;20053;-60
2022/02/08 06:12:54;;;;;;;10.65;7.03;;;;;;;3.82;44.48;102567.16;5008938;28;20050;-60
2022/02/08 06:15:24;;;;;;;15.80;7.32;;;;;;;3.81;44.52;102565.41;5008787;28;20388;-60
2022/02/08 06:17:58;;;;;;;14.05;7.63;;;;;;;3.84;44.35;102573.19;5009210;28;20061;-60
2022/02/08 06:20:25;;;;;;;14.40;7.03;;;;;;;3.80;44.53;102576.66;5009034;28;20065;-60
2022/02/08 06:22:51;;;;;;;12.52;6.95;;;;;;;3.90;44.35;102577.53;5008839;28;20046;-64
2022/02/08 06:25:19;;;;;;;15.98;7.10;;;;;;;3.80;44.65;102575.81;5000569;28;20045;-62
2022/02/08 06:27:49;;;;;;;17.10;7.72;;;;;;;3.74;44.53;102582.69;5008986;28;20475;-61
2022/02/08 06:30:18;;;;;;;14.90;7.50;;;;;;;3.67;44.63;102593.94;5008618;28;20490;-59
2022/02/08 06:32:45;;;;;;;13.93;7.15;;;;;;;3.75;44.39;102592.22;5009020;28;20243;-62
2022/02/08 06:35:17;;;;;;;15.40;7.50;;;;;;;3.71;44.66;102593.06;5009019;28;20057;-59
2022/02/08 06:37:44;;;;;;;12.57;6.63;;;;;;;3.58;44.74;102606.88;5009015;28;20054;-60
2022/02/08 06:40:11;;;;;;;13.00;6.97;;;;;;;3.60;44.87;102602.56;5009019;28;20070;-59
2022/02/08 06:42:41;;;;;;;16.83;8.15;;;;;;;3.63;44.70;102625.97;5010836;28;20054;-61
2022/02/08 06:45:09;;;;;;;14.77;7.50;;;;;;;3.57;44.83;102631.13;5012429;28;20457;-60
2022/02/08 06:47:39;;;;;;;16.15;7.55;;;;;;;3.59;44.61;102631.97;5012091;28;20100;-59
2022/02/08 06:50:06;;;;;;;14.48;7.53;;;;;;;3.51;44.89;102641.50;5010303;28;20269;-60
2022/02/08 06:52:33;;;;;;;16.10;7.82;;;;;;;3.54;44.71;102641.47;5012348;28;20133;-60
2022/02/08 06:55:02;;;;;;;14.73;7.85;;;;;;;3.60;44.72;102633.72;5011042;28;20077;-61
2022/02/08 06:57:30;;;;;;;14.77;7.95;;;;;;;3.69;44.56;102643.28;5012072;28;20048;-59
2022/02/08 07:00:02;;;;;;;17.40;9.35;;;;;;;3.84;44.69;102643.31;5010432;28;20045;-64
2022/02/08 07:02:29;;;;;;;22.20;11.57;;;;;;;3.75;44.54;102651.94;5011934;28;20050;-60
2022/02/08 07:04:56;;;;;;;19.77;10.57;;;;;;;3.72;44.87;102659.72;5008191;28;20152;-60
2022/02/08 07:07:23;;;;;;;22.55;10.15;;;;;;;3.75;44.87;102666.66;5011648;28;20053;-60
2022/02/08 07:09:50;;;;;;;21.63;8.98;;;;;;;3.80;44.63;102669.28;5008469;28;20077;-61
2022/02/08 07:12:17;;;;;;;15.57;8.32;;;;;;;3.85;44.77;102667.56;5002813;28;20054;-61
2022/02/08 07:14:45;;;;;;;18.63;8.40;;;;;;;4.01;44.57;102665.84;5002163;28;20042;-62
2022/02/08 07:17:11;;;;;;;16.05;8.70;;;;;;;4.03;44.65;102671.94;5002533;28;20056;-60
2022/02/08 07:19:38;;;;;;;17.55;9.57;;;;;;;4.20;44.36;102675.44;5002409;28;20395;-60
2022/02/08 07:22:05;;;;;;;23.30;9.63;;;;;;;4.34;43.99;102677.16;5002112;28;20043;-60
2022/02/08 07:24:32;;;;;;;17.88;9.52;;;;;;;4.42;43.91;102680.63;5000126;28;20042;-60
2022/02/08 07:26:59;;;;;;;19.58;9.40;;;;;;;4.41;44.13;102697.94;5002678;28;20070;-60
2022/02/08 07:29:28;;;;;;;24.92;8.90;;;;;;;4.58;44.05;102689.28;5008080;28;20061;-60
2022/02/08 07:31:59;;;;;;;18.13;10.20;;;;;;;4.79;43.69;102684.97;5009366;28;20045;-61
2022/02/08 07:34:37;;;;;;;20.48;9.38;;;;;;;5.05;43.62;102698.81;5010332;28;20050;-61
2022/02/08 07:37:20;;;;;;;17.20;9.68;;;;;;;5.32;43.34;102699.59;5010651;28;20065;-60
2022/02/08 07:39:51;;;;;;;26.98;12.35;;;;;;;5.51;43.07;102696.91;5010947;28;20054;-60
2022/02/08 07:42:18;;;;;;;16.75;9.60;;;;;;;5.71;42.69;102708.13;5010498;28;20046;-60
2022/02/08 07:44:48;;;;;;;23.70;11.65;;;;;;;5.88;42.53;102707.19;5010788;28;20045;-61
2022/02/08 07:47:15;;;;;;;27.73;14.90;;;;;;;6.02;42.27;102714.97;5010405;28;20049;-60
2022/02/08 07:49:41;;;;;;;25.23;11.05;;;;;;;6.13;42.10;102705.34;5009419;28;20042;-60
2022/02/08 07:52:08;;;;;;;18.17;9.60;;;;;;;6.20;41.83;102708.78;5010582;28;20053;-60
2022/02/08 07:54:36;;;;;;;21.92;9.85;;;;;;;6.29;41.90;102711.31;5000797;28;20046;-60
2022/02/08 07:57:03;;;;;;;18.35;9.80;;;;;;;6.42;41.75;102722.50;4999717;28;20506;-61
2022/02/08 07:59:30;;;;;;;17.33;9.27;;;;;;;6.53;41.46;102718.09;5001115;28;20420;-62
2022/02/08 08:01:57;;;;;;;29.60;14.32;;;;;;;6.64;41.27;102717.13;4992462;28;20495;-60
2022/02/08 08:04:23;;;;;;;33.42;11.35;;;;;;;6.89;40.86;102720.38;4990758;28;20178;-61
2022/02/08 08:06:54;;;;;;;21.17;9.38;;;;;;;7.02;40.66;102713.31;5005539;28;20046;-60
2022/02/08 08:09:20;;;;;;;19.05;9.73;;;;;;;7.21;40.51;102720.97;5010264;28;20395;-60
2022/02/08 08:11:48;;;;;;;16.52;8.32;;;;;;;7.43;39.85;102737.28;5009915;28;20045;-60
2022/02/08 08:14:16;;;;;;;18.95;9.40;;;;;;;7.27;40.16;102723.50;5010310;28;20104;-60
2022/02/08 08:16:51;;;;;;;17.48;9.25;;;;;;;7.45;39.68;102725.03;5010314;28;20487;-60
2022/02/08 08:21:47;;;;;;;16.55;8.60;;;;;;;7.81;38.93;102734.19;5009732;28;20050;-61
2022/02/08 08:24:14;;;;;;;15.68;8.32;;;;;;;7.91;38.82;102745.41;5009986;28;20072;-61
2022/02/08 08:26:41;;;;;;;17.52;9.00;;;;;;;7.89;38.74;102741.94;5009709;28;20450;-60
2022/02/08 08:29:08;;;;;;;16.92;9.50;;;;;;;8.03;38.65;102740.91;5009921;28;20568;-61
2022/02/08 08:31:35;;;;;;;17.58;9.05;;;;;;;8.11;38.48;102745.13;5009379;28;20625;-62
2022/02/08 08:34:06;;;;;;;21.60;9.38;;;;;;;8.31;38.13;102747.44;5009913;28;20046;-60
2022/02/08 08:36:33;;;;;;;16.38;8.63;;;;;;;8.67;37.39;102741.69;5009198;28;20112;-60
2022/02/08 08:39:01;;;;;;;15.45;8.82;;;;;;;8.89;37.18;102741.31;5008428;28;20050;-60
2022/02/08 08:51:50;;;;;;;55.53;35.15;;;;;;;9.72;36.00;102738.91;5006305;28;20050;-60
2022/02/08 08:54:18;;;;;;;83.72;47.40;;;;;;;9.90;35.89;102741.16;4998608;28;20099;-60
2022/02/08 08:56:46;;;;;;;196.77;107.88;;;;;;;10.06;35.69;102746.91;4999085;28;20061;-65
2022/02/08 08:59:14;;;;;;;114.05;61.60;;;;;;;10.45;35.60;102751.31;4999431;28;20057;-62
2022/02/08 09:01:41;;;;;;;39.42;22.85;;;;;;;10.70;35.61;102741.06;5005075;28;20050;-61
2022/02/08 09:04:09;;;;;;;18.67;10.35;;;;;;;10.85;34.98;102737.19;5009419;28;20046;-61
2022/02/08 09:06:37;;;;;;;39.70;25.30;;;;;;;10.98;34.65;102739.50;4999801;28;20088;-61
2022/02/08 09:09:09;;;;;;;23.70;14.35;;;;;;;11.20;34.19;102738.03;4999196;28;20487;-61
2022/02/08 09:14:13;;;;;;;32.72;19.13;;;;;;;11.59;33.52;102743.09;5002758;28;20506;-61
2022/02/08 09:24:56;;;;;;;15.05;8.88;;;;;;;12.28;32.15;102743.69;5009503;28;20093;-61
2022/02/08 09:29:55;;;;;;;10.82;6.78;;;;;;;12.64;31.50;102738.16;5008241;28;20058;-61
2022/02/08 09:32:41;;;;;;;67.05;41.90;;;;;;;12.80;31.45;102738.50;5003051;28;20125;-61
2022/02/08 09:35:08;;;;;;;13.10;8.10;;;;;;;12.98;30.99;102743.13;4997867;28;20065;-61
2022/02/08 09:37:37;;;;;;;10.52;5.78;;;;;;;13.23;30.65;102737.03;5005522;28;20052;-61
2022/02/08 09:40:06;;;;;;;10.18;5.22;;;;;;;13.48;30.48;102733.50;5002730;28;20050;-61
2022/02/08 09:42:33;;;;;;;7.47;5.18;;;;;;;13.63;30.02;102730.28;5006753;28;20058;-61
2022/02/08 09:45:00;;;;;;;10.57;5.03;;;;;;;13.83;29.82;102732.19;5008930;28;20046;-61
2022/02/08 09:47:37;;;;;;;7.18;4.47;;;;;;;13.96;29.71;102729.06;5008477;28;20073;-61
2022/02/08 09:50:16;;;;;;;10.68;4.95;;;;;;;14.06;28.89;102722.50;5008673;28;20054;-61
2022/02/08 09:52:47;;;;;;;9.25;4.85;;;;;;;14.30;28.38;102728.56;5002162;28;21383;-61
2022/02/08 09:55:14;;;;;;;10.45;3.70;;;;;;;14.45;28.49;102724.47;5008206;28;20041;-61
2022/02/08 09:57:42;;;;;;;8.95;5.75;;;;;;;14.59;28.08;102720.38;5007674;28;20483;-61
2022/02/08 10:00:10;;;;;;;9.82;4.70;;;;;;;14.73;27.62;102715.41;5002395;28;20128;-61
2022/02/08 10:02:37;;;;;;;5.82;3.10;;;;;;;14.94;26.72;102723.34;5005040;28;20046;-61
2022/02/08 10:05:06;;;;;;;5.57;3.05;;;;;;;15.11;26.29;102717.28;5008590;28;20049;-62
2022/02/08 10:07:33;;;;;;;7.65;3.78;;;;;;;15.27;25.64;102720.13;5007544;28;20049;-61
2022/02/08 10:10:00;;;;;;;4.90;2.80;;;;;;;15.45;25.25;102723.72;5008555;28;20442;-61
2022/02/08 10:23:35;;;;;;;2.55;1.80;;;;;;;16.13;23.34;102715.28;5012137;28;20410;-61
2022/02/08 10:26:06;;;;;;;3.72;2.00;;;;;;;16.28;22.46;102714.53;5009230;28;20041;-61
2022/02/08 10:28:53;;;;;;;2.97;1.70;;;;;;;16.29;22.05;102702.13;5002224;28;20049;-61
2022/02/08 10:31:32;;;;;;;2.65;1.50;;;;;;;16.46;21.73;102704.81;5011703;28;20053;-61
2022/02/08 10:40:01;;;;;;;7.97;4.20;;;;;;;16.72;20.87;102697.34;4992621;28;20069;-61
2022/02/08 10:42:29;;;;;;;4.25;2.30;;;;;;;16.83;21.13;102690.63;4992549;28;20058;-61
2022/02/08 10:44:57;;;;;;;16.55;11.15;;;;;;;16.87;20.81;102687.72;4992536;28;20442;-61
2022/02/08 10:47:39;;;;;;;8.10;4.28;;;;;;;16.94;21.23;102690.97;5000395;28;20058;-62
2022/02/08 10:50:08;;;;;;;5.93;3.28;;;;;;;17.00;21.59;102682.69;5010989;28;20809;-61
2022/02/08 10:52:36;;;;;;;12.90;8.00;;;;;;;17.07;21.91;102692.00;5011953;28;20061;-61
2022/02/08 11:00:33;;;;;;;12.07;8.20;;;;;;;17.37;22.46;102674.50;5008543;28;20041;-61
2022/02/08 11:03:04;;;;;;;10.80;6.95;;;;;;;17.35;22.49;102671.94;5009540;28;20618;-61
2022/02/08 11:16:08;;;;;;;20.13;12.75;;;;;;;17.29;23.33;102659.88;5011477;28;20479;-61
2022/02/08 11:18:58;;;;;;;15.27;9.70;;;;;;;17.35;23.31;102658.69;5010555;28;20445;-62
2022/02/08 11:24:01;;;;;;;61.10;43.70;;;;;;;17.47;23.18;102649.16;5010985;28;20050;-61
2022/02/08 11:26:33;;;;;;;117.97;79.05;;;;;;;17.52;22.97;102646.28;5010666;28;20454;-61
2022/02/08 11:29:18;;;;;;;12.18;6.40;;;;;;;17.52;22.74;102644.50;5009935;28;20549;-61
2022/02/08 11:31:51;;;;;;;109.63;79.25;;;;;;;17.58;22.99;102643.28;5010849;28;20535;-61
2022/02/08 11:40:57;;;;;;;25.95;18.73;;;;;;;17.81;22.54;102634.00;5008669;28;20116;-61
2022/02/08 11:49:24;;;;;;;11.57;7.38;;;;;;;18.03;23.43;102615.06;5000708;28;20046;-64
2022/02/08 11:52:15;;;;;;;45.42;28.33;;;;;;;18.08;24.02;102615.66;5004821;28;20104;-62
2022/02/08 12:07:44;;;;;;;42.65;22.95;;;;;;;18.68;21.98;102581.97;5009813;28;20108;-61
2022/02/08 12:13:06;;;;;;;17.65;8.85;;;;;;;18.98;24.35;102574.84;5009864;28;20085;-63
2022/02/08 12:35:26;;;;;;;20.55;13.93;;;;;;;19.46;20.45;102535.34;5009735;28;19936;-61
2022/02/08 14:14:50;;;;;;;20.20;10.10;;;;;;;19.70;16.66;102500.06;4993012;28;20051;-61
2022/02/08 14:17:24;;;;;;;19.80;12.15;;;;;;;19.71;16.71;102502.63;4989735;28;20046;-61
2022/02/08 14:19:41;;;;;;;38.15;21.27;;;;;;;19.59;16.64;102508.75;5001979;28;20060;-61
2022/02/08 14:30:27;;;;;;;15.93;8.63;;;;;;;20.06;16.21;102499.41;5011769;28;20060;-61
2022/02/08 14:33:07;;;;;;;22.20;11.45;;;;;;;20.04;16.63;102493.31;5012540;28;20060;-61
2022/02/08 15:08:16;;;;;;;15.23;8.15;;;;;;;20.37;18.91;102496.41;5009894;28;20045;-63
2022/02/08 15:13:12;;;;;;;4.30;3.10;;;;;;;20.18;18.32;102492.34;5011312;28;20049;-62
2022/02/08 15:18:40;;;;;;;4.00;3.28;;;;;;;19.84;17.69;102492.00;5010731;28;20516;-61
2022/02/08 15:21:13;;;;;;;6.53;4.13;;;;;;;19.71;17.27;102502.63;5011034;28;20046;-61
2022/02/08 15:23:39;;;;;;;4.55;2.60;;;;;;;19.61;17.14;102503.38;5011362;28;20049;-61
2022/02/08 15:26:07;;;;;;;4.85;4.00;;;;;;;19.66;17.24;102504.75;5010068;28;20037;-62
2022/02/08 15:28:34;;;;;;;11.80;6.93;;;;;;;19.32;17.25;102504.31;5010663;28;20088;-62
2022/02/08 15:31:01;;;;;;;9.40;6.18;;;;;;;19.15;17.14;102505.44;5010691;28;20447;-61
2022/02/08 15:33:28;;;;;;;12.60;7.65;;;;;;;18.97;17.38;102503.97;5007580;28;20108;-61
2022/02/08 15:35:55;;;;;;;9.13;5.07;;;;;;;18.97;17.79;102509.28;5010666;28;20060;-61
2022/02/08 15:38:28;;;;;;;16.05;9.40;;;;;;;18.87;17.75;102509.84;5010276;28;20495;-61
2022/02/08 15:40:58;;;;;;;15.63;10.38;;;;;;;18.84;17.45;102511.84;5010962;28;20410;-61
2022/02/08 15:43:26;;;;;;;16.55;11.07;;;;;;;18.49;17.80;102513.13;5009668;28;20081;-62
2022/02/08 15:46:06;;;;;;;17.55;10.57;;;;;;;18.35;18.22;102510.47;5011026;28;20046;-61
2022/02/08 15:48:34;;;;;;;13.98;8.38;;;;;;;18.23;17.97;102518.25;5010376;28;20057;-61
2022/02/08 15:51:07;;;;;;;17.13;10.15;;;;;;;18.02;18.47;102512.41;5010642;28;20619;-61
2022/02/08 15:53:47;;;;;;;18.95;8.65;;;;;;;17.83;18.42;102511.78;5010945;28;20107;-61
2022/02/08 16:09:54;;;;;;;9.02;4.40;;;;;;;16.18;20.75;102519.91;5010263;28;20120;-61
2022/02/08 16:15:23;;;;;;;6.85;4.20;;;;;;;15.59;21.35;102525.50;5010063;28;20049;-62
2022/02/08 16:28:01;;;;;;;16.15;8.77;;;;;;;14.69;22.58;102534.97;4989908;28;20483;-61
2022/02/08 17:00:48;;;;;;;6.90;3.90;;;;;;;13.32;26.15;102574.97;5003454;28;20042;-61
2022/02/08 17:03:21;;;;;;;5.97;3.90;;;;;;;13.20;26.03;102574.53;5004422;28;20045;-61
2022/02/08 17:05:48;;;;;;;12.18;6.43;;;;;;;13.09;26.38;102578.47;5002824;28;20045;-61
2022/02/08 17:08:15;;;;;;;15.50;8.98;;;;;;;13.01;26.74;102581.41;5000543;28;20057;-61
2022/02/08 17:10:46;;;;;;;21.90;11.18;;;;;;;12.94;26.81;102593.09;5000599;28;20050;-61
2022/02/08 17:15:55;;;;;;;23.65;10.20;;;;;;;12.72;27.32;102599.13;4998163;28;20144;-63
2022/02/08 17:36:01;;;;;;;18.63;9.30;;;;;;;12.64;28.48;102607.31;5009484;28;20116;-61
2022/02/08 17:48:17;;;;;;;13.70;8.98;;;;;;;12.50;29.67;102620.97;5009043;28;20125;-61
2022/02/08 17:50:45;;;;;;;13.32;9.20;;;;;;;12.47;29.67;102623.72;5009437;28;20050;-62
2022/02/08 17:53:11;;;;;;;23.67;10.82;;;;;;;12.41;29.93;102635.31;5009330;28;20053;-61
2022/02/08 17:55:38;;;;;;;21.83;11.63;;;;;;;12.38;29.87;102626.69;5007941;28;20494;-60
2022/02/08 17:58:05;;;;;;;27.05;15.57;;;;;;;12.34;29.93;102635.56;5009212;28;20514;-63
2022/02/08 18:00:35;;;;;;;31.25;17.95;;;;;;;12.31;29.99;102622.53;5007721;28;20150;-61
2022/02/08 18:03:04;;;;;;;29.75;18.08;;;;;;;12.27;30.10;102629.66;5009229;28;20076;-61
2022/02/08 18:05:30;;;;;;;35.83;19.00;;;;;;;12.22;30.32;102629.78;5026668;28;20046;-62
2022/02/08 18:07:58;;;;;;;34.47;18.23;;;;;;;12.16;30.56;102635.25;5026702;28;20521;-60
2022/02/08 18:10:30;;;;;;;35.70;18.58;;;;;;;12.11;30.71;102638.97;5012757;28;20406;-61
2022/02/08 18:12:58;;;;;;;26.83;15.88;;;;;;;12.03;30.90;102647.09;5008734;28;20050;-61
2022/02/08 18:15:26;;;;;;;21.55;12.68;;;;;;;11.98;31.10;102649.88;5008560;28;20042;-62
2022/02/08 18:17:57;;;;;;;19.27;10.50;;;;;;;11.94;30.91;102650.84;5008290;28;20101;-60
2022/02/08 18:20:36;;;;;;;18.80;9.27;;;;;;;11.90;31.05;102657.13;5015608;28;20045;-60
2022/02/08 18:28:43;;;;;;;18.42;9.80;;;;;;;11.82;30.55;102662.63;5012060;28;20046;-60
2022/02/08 18:50:38;;;;;;;19.73;10.43;;;;;;;11.70;30.72;102676.16;5024916;28;20045;-61
2022/02/08 19:12:34;;;;;;;64.88;30.85;;;;;;;11.00;31.99;102696.53;5031572;28;20041;-60
2022/02/08 19:15:20;;;;;;;56.17;27.90;;;;;;;10.88;32.29;102695.09;5031444;28;20072;-60
2022/02/08 19:17:54;;;;;;;53.70;26.45;;;;;;;10.73;32.61;102700.75;5010831;28;20053;-61
2022/02/08 19:20:29;;;;;;;52.78;26.00;;;;;;;10.63;32.79;102708.00;5011431;28;20045;-62
2022/02/08 19:22:56;;;;;;;47.17;23.25;;;;;;;10.56;33.06;102712.53;5010618;28;20173;-61
2022/02/08 19:25:22;;;;;;;47.35;22.25;;;;;;;10.49;33.16;102713.59;5011583;28;20053;-61
2022/02/08 19:27:50;;;;;;;41.67;22.17;;;;;;;10.42;33.25;102710.25;5011379;28;20053;-61
2022/02/08 19:30:19;;;;;;;45.28;22.75;;;;;;;10.30;33.57;102724.47;5010858;28;20108;-60
2022/02/08 19:32:46;;;;;;;39.22;21.40;;;;;;;10.21;33.88;102722.09;5011328;28;20048;-61
2022/02/08 19:35:14;;;;;;;39.65;20.63;;;;;;;10.13;34.14;102724.88;5010261;28;20049;-60
2022/02/08 19:37:43;;;;;;;39.50;20.40;;;;;;;10.03;34.28;102726.00;5011476;28;20057;-60
2022/02/08 19:40:10;;;;;;;41.55;20.20;;;;;;;9.96;34.21;102727.88;5011176;28;20050;-61
2022/02/08 19:42:38;;;;;;;38.65;19.02;;;;;;;10.03;34.22;102725.13;5011169;28;20133;-61